sensor_id;sensor_type;location;lat;lon;timestamp;temperature;humidity
16247;DHT22;8231;50.866;7.944;2022-12-13T00:01:42;-7.90;99.90
16247;DHT22;8231;50.866;7.944;2022-12-13T00:04:11;-8.00;99.90
16247;DHT22;8231;50.866;7.944;2022-12-13T00:06:40;-8.00;99.90
16247;DHT22;8231;50.866;7.944;2022-12-13T00:09:10;-8.00;99.90
16247;DHT22;8231;50.866;7.944;2022-12-13T00:11:41;-8.10;99.90
16247;DHT22;8231;50.866;7.944;2022-12-13T00:14:09;-8.10;99.90
16247;DHT22;8231;50.866;7.944;2022-12-13T00:16:39;-8.10;99.90
16247;DHT22;8231;50.866;7.944;2022-12-13T00:19:08;-8.10;99.90
16247;DHT22;8231;50.866;7.944;2022-12-13T00:21:36;-8.00;99.90
16247;DHT22;8231;50.866;7.944;2022-12-13T00:24:05;-8.10;99.90
16247;DHT22;8231;50.866;7.944;2022-12-13T00:26:34;-8.20;99.90
16247;DHT22;8231;50.866;7.944;2022-12-13T00:29:06;-8.20;99.90
16247;DHT22;8231;50.866;7.944;2022-12-13T00:31:34;-8.10;99.90
16247;DHT22;8231;50.866;7.944;2022-12-13T00:34:22;-8.00;99.90
16247;DHT22;8231;50.866;7.944;2022-12-13T00:36:52;-8.20;99.90
16247;DHT22;8231;50.866;7.944;2022-12-13T00:39:20;-8.20;99.90
16247;DHT22;8231;50.866;7.944;2022-12-13T00:41:49;-8.20;99.90
16247;DHT22;8231;50.866;7.944;2022-12-13T00:44:18;-8.20;99.90
16247;DHT22;8231;50.866;7.944;2022-12-13T00:46:46;-8.10;99.90
16247;DHT22;8231;50.866;7.944;2022-12-13T00:49:17;-8.10;99.90
16247;DHT22;8231;50.866;7.944;2022-12-13T00:51:45;-8.00;99.90
16247;DHT22;8231;50.866;7.944;2022-12-13T00:54:15;-7.70;99.90
16247;DHT22;8231;50.866;7.944;2022-12-13T00:56:43;-7.50;99.90
16247;DHT22;8231;50.866;7.944;2022-12-13T00:59:13;-7.30;99.90
16247;DHT22;8231;50.866;7.944;2022-12-13T01:01:43;-7.10;99.90
16247;DHT22;8231;50.866;7.944;2022-12-13T01:04:12;-6.90;99.90
16247;DHT22;8231;50.866;7.944;2022-12-13T01:06:42;-6.80;99.90
16247;DHT22;8231;50.866;7.944;2022-12-13T01:09:16;-6.50;99.90
16247;DHT22;8231;50.866;7.944;2022-12-13T01:11:45;-6.40;99.90
16247;DHT22;8231;50.866;7.944;2022-12-13T01:14:14;-6.20;99.90
16247;DHT22;8231;50.866;7.944;2022-12-13T01:16:44;-6.20;99.90
16247;DHT22;8231;50.866;7.944;2022-12-13T01:19:12;-6.10;99.90
16247;DHT22;8231;50.866;7.944;2022-12-13T01:21:40;-6.00;99.90
16247;DHT22;8231;50.866;7.944;2022-12-13T01:24:08;-5.80;99.90
16247;DHT22;8231;50.866;7.944;2022-12-13T01:26:37;-5.80;99.90
16247;DHT22;8231;50.866;7.944;2022-12-13T01:29:05;-5.70;99.90
16247;DHT22;8231;50.866;7.944;2022-12-13T01:31:34;-5.70;99.90
16247;DHT22;8231;50.866;7.944;2022-12-13T01:34:09;-5.70;99.90
16247;DHT22;8231;50.866;7.944;2022-12-13T01:36:38;-5.60;99.90
16247;DHT22;8231;50.866;7.944;2022-12-13T01:39:06;-5.60;99.90
16247;DHT22;8231;50.866;7.944;2022-12-13T01:41:42;-5.50;99.90
16247;DHT22;8231;50.866;7.944;2022-12-13T01:47:14;-5.50;99.90
16247;DHT22;8231;50.866;7.944;2022-12-13T01:49:46;-5.40;99.90
16247;DHT22;8231;50.866;7.944;2022-12-13T01:52:16;-5.40;99.90
16247;DHT22;8231;50.866;7.944;2022-12-13T01:54:47;-5.40;99.90
16247;DHT22;8231;50.866;7.944;2022-12-13T01:57:17;-5.40;99.90
16247;DHT22;8231;50.866;7.944;2022-12-13T01:59:48;-5.30;99.90
16247;DHT22;8231;50.866;7.944;2022-12-13T02:02:17;-5.30;99.90
16247;DHT22;8231;50.866;7.944;2022-12-13T02:04:50;-5.30;99.90
16247;DHT22;8231;50.866;7.944;2022-12-13T02:07:24;-5.30;99.90
16247;DHT22;8231;50.866;7.944;2022-12-13T02:09:56;-5.30;99.90
16247;DHT22;8231;50.866;7.944;2022-12-13T02:12:27;-5.20;99.90
16247;DHT22;8231;50.866;7.944;2022-12-13T02:14:57;-5.20;99.90
16247;DHT22;8231;50.866;7.944;2022-12-13T02:17:36;-5.20;99.90
16247;DHT22;8231;50.866;7.944;2022-12-13T02:20:45;-5.20;99.90
16247;DHT22;8231;50.866;7.944;2022-12-13T02:23:40;-5.10;99.90
16247;DHT22;8231;50.866;7.944;2022-12-13T02:26:46;-5.10;99.90
16247;DHT22;8231;50.866;7.944;2022-12-13T02:32:34;-5.10;99.90
16247;DHT22;8231;50.866;7.944;2022-12-13T02:35:07;-5.10;99.90
16247;DHT22;8231;50.866;7.944;2022-12-13T02:37:45;-5.10;99.90
16247;DHT22;8231;50.866;7.944;2022-12-13T02:40:19;-5.10;99.90
16247;DHT22;8231;50.866;7.944;2022-12-13T02:42:53;-5.10;99.90
16247;DHT22;8231;50.866;7.944;2022-12-13T02:45:29;-5.10;99.90
16247;DHT22;8231;50.866;7.944;2022-12-13T02:48:01;-5.10;99.90
16247;DHT22;8231;50.866;7.944;2022-12-13T02:50:31;-5.10;99.90
16247;DHT22;8231;50.866;7.944;2022-12-13T02:53:01;-5.10;99.90
16247;DHT22;8231;50.866;7.944;2022-12-13T02:55:30;-5.20;99.90
16247;DHT22;8231;50.866;7.944;2022-12-13T02:58:01;-5.20;99.90
16247;DHT22;8231;50.866;7.944;2022-12-13T03:00:35;-5.20;99.90
16247;DHT22;8231;50.866;7.944;2022-12-13T03:03:15;-5.20;99.90
16247;DHT22;8231;50.866;7.944;2022-12-13T03:05:52;-5.20;99.90
16247;DHT22;8231;50.866;7.944;2022-12-13T03:08:47;-5.30;99.90
16247;DHT22;8231;50.866;7.944;2022-12-13T03:11:22;-5.30;99.90
16247;DHT22;8231;50.866;7.944;2022-12-13T03:13:54;-5.30;99.90
16247;DHT22;8231;50.866;7.944;2022-12-13T03:16:28;-5.30;99.90
16247;DHT22;8231;50.866;7.944;2022-12-13T03:19:03;-5.30;99.90
16247;DHT22;8231;50.866;7.944;2022-12-13T03:21:37;-5.20;99.90
16247;DHT22;8231;50.866;7.944;2022-12-13T03:24:15;-5.20;99.90
16247;DHT22;8231;50.866;7.944;2022-12-13T03:26:43;-5.10;99.90
16247;DHT22;8231;50.866;7.944;2022-12-13T03:29:12;-5.20;99.90
16247;DHT22;8231;50.866;7.944;2022-12-13T03:31:49;-5.10;99.90
16247;DHT22;8231;50.866;7.944;2022-12-13T03:34:19;-5.10;99.90
16247;DHT22;8231;50.866;7.944;2022-12-13T03:36:49;-5.10;99.90
16247;DHT22;8231;50.866;7.944;2022-12-13T03:39:17;-5.10;99.90
16247;DHT22;8231;50.866;7.944;2022-12-13T03:41:46;-5.10;99.90
16247;DHT22;8231;50.866;7.944;2022-12-13T03:44:14;-5.10;99.90
16247;DHT22;8231;50.866;7.944;2022-12-13T03:46:43;-5.10;99.90
16247;DHT22;8231;50.866;7.944;2022-12-13T03:49:11;-5.10;99.90
16247;DHT22;8231;50.866;7.944;2022-12-13T03:51:44;-5.20;99.90
16247;DHT22;8231;50.866;7.944;2022-12-13T03:54:12;-5.10;99.90
16247;DHT22;8231;50.866;7.944;2022-12-13T03:56:41;-5.10;99.90
16247;DHT22;8231;50.866;7.944;2022-12-13T03:59:09;-5.10;99.90
16247;DHT22;8231;50.866;7.944;2022-12-13T04:01:37;-5.10;99.90
16247;DHT22;8231;50.866;7.944;2022-12-13T04:04:05;-5.10;99.90
16247;DHT22;8231;50.866;7.944;2022-12-13T04:06:33;-5.10;99.90
16247;DHT22;8231;50.866;7.944;2022-12-13T04:09:03;-5.10;99.90
16247;DHT22;8231;50.866;7.944;2022-12-13T04:11:31;-5.00;99.90
16247;DHT22;8231;50.866;7.944;2022-12-13T04:14:16;-5.00;99.90
16247;DHT22;8231;50.866;7.944;2022-12-13T04:16:49;-5.00;99.90
16247;DHT22;8231;50.866;7.944;2022-12-13T04:19:17;-4.90;99.90
16247;DHT22;8231;50.866;7.944;2022-12-13T04:21:49;-4.90;99.90
16247;DHT22;8231;50.866;7.944;2022-12-13T04:24:20;-4.90;99.90
16247;DHT22;8231;50.866;7.944;2022-12-13T04:26:58;-4.90;99.90
16247;DHT22;8231;50.866;7.944;2022-12-13T04:29:27;-4.90;99.90
16247;DHT22;8231;50.866;7.944;2022-12-13T04:32:02;-4.90;99.90
16247;DHT22;8231;50.866;7.944;2022-12-13T04:34:30;-4.80;99.90
16247;DHT22;8231;50.866;7.944;2022-12-13T04:37:04;-4.90;99.90
16247;DHT22;8231;50.866;7.944;2022-12-13T04:39:33;-4.80;99.90
16247;DHT22;8231;50.866;7.944;2022-12-13T04:42:02;-4.80;99.90
16247;DHT22;8231;50.866;7.944;2022-12-13T04:44:30;-4.80;99.90
16247;DHT22;8231;50.866;7.944;2022-12-13T04:47:03;-4.80;99.90
16247;DHT22;8231;50.866;7.944;2022-12-13T04:49:32;-4.80;99.90
16247;DHT22;8231;50.866;7.944;2022-12-13T04:52:00;-4.80;99.90
16247;DHT22;8231;50.866;7.944;2022-12-13T04:54:29;-4.80;99.90
16247;DHT22;8231;50.866;7.944;2022-12-13T04:57:06;-4.80;99.90
16247;DHT22;8231;50.866;7.944;2022-12-13T04:59:35;-4.90;99.90
16247;DHT22;8231;50.866;7.944;2022-12-13T05:02:05;-4.80;99.90
16247;DHT22;8231;50.866;7.944;2022-12-13T05:04:34;-4.80;99.90
16247;DHT22;8231;50.866;7.944;2022-12-13T05:07:02;-4.80;99.90
16247;DHT22;8231;50.866;7.944;2022-12-13T05:09:30;-4.80;99.90
16247;DHT22;8231;50.866;7.944;2022-12-13T05:11:58;-4.80;99.90
16247;DHT22;8231;50.866;7.944;2022-12-13T05:14:29;-4.80;99.90
16247;DHT22;8231;50.866;7.944;2022-12-13T05:16:57;-4.80;99.90
16247;DHT22;8231;50.866;7.944;2022-12-13T05:19:27;-4.80;99.90
16247;DHT22;8231;50.866;7.944;2022-12-13T05:21:57;-4.70;99.90
16247;DHT22;8231;50.866;7.944;2022-12-13T05:24:28;-4.70;99.90
16247;DHT22;8231;50.866;7.944;2022-12-13T05:26:57;-4.80;99.90
16247;DHT22;8231;50.866;7.944;2022-12-13T05:29:25;-4.80;99.90
16247;DHT22;8231;50.866;7.944;2022-12-13T05:31:55;-4.80;99.90
16247;DHT22;8231;50.866;7.944;2022-12-13T05:34:23;-4.70;99.90
16247;DHT22;8231;50.866;7.944;2022-12-13T05:36:52;-4.70;99.90
16247;DHT22;8231;50.866;7.944;2022-12-13T05:39:20;-4.70;99.90
16247;DHT22;8231;50.866;7.944;2022-12-13T05:41:57;-4.60;99.90
16247;DHT22;8231;50.866;7.944;2022-12-13T05:44:29;-4.70;99.90
16247;DHT22;8231;50.866;7.944;2022-12-13T05:46:59;-4.80;99.90
16247;DHT22;8231;50.866;7.944;2022-12-13T05:49:29;-4.80;99.90
16247;DHT22;8231;50.866;7.944;2022-12-13T05:51:57;-4.80;99.90
16247;DHT22;8231;50.866;7.944;2022-12-13T05:54:26;-4.80;99.90
16247;DHT22;8231;50.866;7.944;2022-12-13T05:56:54;-4.80;99.90
16247;DHT22;8231;50.866;7.944;2022-12-13T05:59:23;-4.80;99.90
16247;DHT22;8231;50.866;7.944;2022-12-13T06:01:51;-4.90;99.90
16247;DHT22;8231;50.866;7.944;2022-12-13T06:04:21;-4.90;99.90
16247;DHT22;8231;50.866;7.944;2022-12-13T06:06:50;-4.80;99.90
16247;DHT22;8231;50.866;7.944;2022-12-13T06:09:18;-4.90;99.90
16247;DHT22;8231;50.866;7.944;2022-12-13T06:11:46;-4.90;99.90
16247;DHT22;8231;50.866;7.944;2022-12-13T06:14:15;-4.90;99.90
16247;DHT22;8231;50.866;7.944;2022-12-13T06:16:50;-4.90;99.90
16247;DHT22;8231;50.866;7.944;2022-12-13T06:19:18;-4.80;99.90
16247;DHT22;8231;50.866;7.944;2022-12-13T06:21:48;-4.80;99.90
16247;DHT22;8231;50.866;7.944;2022-12-13T06:24:17;-4.70;99.90
16247;DHT22;8231;50.866;7.944;2022-12-13T06:26:47;-4.80;99.90
16247;DHT22;8231;50.866;7.944;2022-12-13T06:29:16;-4.80;99.90
16247;DHT22;8231;50.866;7.944;2022-12-13T06:31:55;-4.80;99.90
16247;DHT22;8231;50.866;7.944;2022-12-13T06:34:30;-4.80;99.90
16247;DHT22;8231;50.866;7.944;2022-12-13T06:37:03;-4.90;99.90
16247;DHT22;8231;50.866;7.944;2022-12-13T06:39:31;-4.90;99.90
16247;DHT22;8231;50.866;7.944;2022-12-13T06:42:00;-4.90;99.90
16247;DHT22;8231;50.866;7.944;2022-12-13T06:44:29;-4.90;99.90
16247;DHT22;8231;50.866;7.944;2022-12-13T06:46:57;-4.90;99.90
16247;DHT22;8231;50.866;7.944;2022-12-13T06:49:38;-4.90;99.90
16247;DHT22;8231;50.866;7.944;2022-12-13T06:52:10;-4.90;99.90
16247;DHT22;8231;50.866;7.944;2022-12-13T06:54:39;-4.80;99.90
16247;DHT22;8231;50.866;7.944;2022-12-13T06:57:07;-4.90;99.90
16247;DHT22;8231;50.866;7.944;2022-12-13T06:59:36;-4.50;99.90
16247;DHT22;8231;50.866;7.944;2022-12-13T07:02:04;-4.90;99.90
16247;DHT22;8231;50.866;7.944;2022-12-13T07:04:52;-4.90;99.90
16247;DHT22;8231;50.866;7.944;2022-12-13T07:07:22;-5.00;99.90
16247;DHT22;8231;50.866;7.944;2022-12-13T07:09:51;-4.90;99.90
16247;DHT22;8231;50.866;7.944;2022-12-13T07:12:20;-5.00;99.90
16247;DHT22;8231;50.866;7.944;2022-12-13T07:14:48;-4.90;99.90
16247;DHT22;8231;50.866;7.944;2022-12-13T07:17:17;-5.00;99.90
16247;DHT22;8231;50.866;7.944;2022-12-13T07:20:02;-4.90;99.90
16247;DHT22;8231;50.866;7.944;2022-12-13T07:22:31;-4.90;99.90
16247;DHT22;8231;50.866;7.944;2022-12-13T07:25:01;-4.90;99.90
16247;DHT22;8231;50.866;7.944;2022-12-13T07:27:30;-4.90;99.90
16247;DHT22;8231;50.866;7.944;2022-12-13T07:29:58;-4.90;99.90
16247;DHT22;8231;50.866;7.944;2022-12-13T07:32:27;-4.90;99.90
16247;DHT22;8231;50.866;7.944;2022-12-13T07:34:55;-4.90;99.90
16247;DHT22;8231;50.866;7.944;2022-12-13T07:37:23;-4.90;99.90
16247;DHT22;8231;50.866;7.944;2022-12-13T07:39:58;-4.90;99.90
16247;DHT22;8231;50.866;7.944;2022-12-13T07:42:30;-4.90;99.90
16247;DHT22;8231;50.866;7.944;2022-12-13T07:44:59;-4.90;99.90
16247;DHT22;8231;50.866;7.944;2022-12-13T07:47:28;-4.90;99.90
16247;DHT22;8231;50.866;7.944;2022-12-13T07:49:56;-4.90;99.90
16247;DHT22;8231;50.866;7.944;2022-12-13T07:52:24;-4.90;99.90
16247;DHT22;8231;50.866;7.944;2022-12-13T07:54:52;-4.90;99.90
16247;DHT22;8231;50.866;7.944;2022-12-13T07:57:22;-4.80;99.90
16247;DHT22;8231;50.866;7.944;2022-12-13T07:59:50;-4.90;99.90
16247;DHT22;8231;50.866;7.944;2022-12-13T08:02:18;-4.90;99.90
16247;DHT22;8231;50.866;7.944;2022-12-13T08:04:47;-4.90;99.90
16247;DHT22;8231;50.866;7.944;2022-12-13T08:07:21;-4.80;99.90
16247;DHT22;8231;50.866;7.944;2022-12-13T08:09:49;-4.80;99.90
16247;DHT22;8231;50.866;7.944;2022-12-13T08:12:19;-4.80;99.90
16247;DHT22;8231;50.866;7.944;2022-12-13T08:14:50;-4.80;99.90
16247;DHT22;8231;50.866;7.944;2022-12-13T08:17:19;-4.80;99.90
16247;DHT22;8231;50.866;7.944;2022-12-13T08:19:48;-4.80;99.90
16247;DHT22;8231;50.866;7.944;2022-12-13T08:22:16;-4.80;99.90
16247;DHT22;8231;50.866;7.944;2022-12-13T08:24:50;-4.80;99.90
16247;DHT22;8231;50.866;7.944;2022-12-13T08:27:18;-4.80;99.90
16247;DHT22;8231;50.866;7.944;2022-12-13T08:29:46;-4.80;99.90
16247;DHT22;8231;50.866;7.944;2022-12-13T08:32:16;-4.80;99.90
16247;DHT22;8231;50.866;7.944;2022-12-13T08:34:45;-4.70;99.90
16247;DHT22;8231;50.866;7.944;2022-12-13T08:37:13;-4.80;99.90
16247;DHT22;8231;50.866;7.944;2022-12-13T08:39:41;-4.70;99.90
16247;DHT22;8231;50.866;7.944;2022-12-13T08:42:11;-4.70;99.90
16247;DHT22;8231;50.866;7.944;2022-12-13T08:44:47;-4.70;99.90
16247;DHT22;8231;50.866;7.944;2022-12-13T08:47:17;-4.80;99.90
16247;DHT22;8231;50.866;7.944;2022-12-13T08:49:49;-4.80;99.90
16247;DHT22;8231;50.866;7.944;2022-12-13T08:52:17;-4.80;99.90
16247;DHT22;8231;50.866;7.944;2022-12-13T08:54:47;-4.80;99.90
16247;DHT22;8231;50.866;7.944;2022-12-13T08:57:15;-4.90;99.90
16247;DHT22;8231;50.866;7.944;2022-12-13T08:59:44;-4.90;99.90
16247;DHT22;8231;50.866;7.944;2022-12-13T09:02:12;-5.00;99.90
16247;DHT22;8231;50.866;7.944;2022-12-13T09:04:42;-5.00;99.90
16247;DHT22;8231;50.866;7.944;2022-12-13T09:07:10;-5.10;99.90
16247;DHT22;8231;50.866;7.944;2022-12-13T09:09:38;-5.10;99.90
16247;DHT22;8231;50.866;7.944;2022-12-13T09:12:06;-5.10;99.90
16247;DHT22;8231;50.866;7.944;2022-12-13T09:14:54;-5.10;99.90
16247;DHT22;8231;50.866;7.944;2022-12-13T09:17:30;-5.10;99.90
16247;DHT22;8231;50.866;7.944;2022-12-13T09:20:06;-5.10;99.90
16247;DHT22;8231;50.866;7.944;2022-12-13T09:22:55;-5.10;99.90
16247;DHT22;8231;50.866;7.944;2022-12-13T09:25:28;-4.90;99.90
16247;DHT22;8231;50.866;7.944;2022-12-13T09:28:05;-4.80;99.90
16247;DHT22;8231;50.866;7.944;2022-12-13T09:30:34;-4.70;99.90
16247;DHT22;8231;50.866;7.944;2022-12-13T09:33:03;-4.70;99.90
16247;DHT22;8231;50.866;7.944;2022-12-13T09:35:52;-4.70;99.90
16247;DHT22;8231;50.866;7.944;2022-12-13T09:38:20;-4.60;99.90
16247;DHT22;8231;50.866;7.944;2022-12-13T09:40:51;-4.50;99.90
16247;DHT22;8231;50.866;7.944;2022-12-13T09:43:28;-4.50;99.90
16247;DHT22;8231;50.866;7.944;2022-12-13T09:46:12;-4.40;99.90
16247;DHT22;8231;50.866;7.944;2022-12-13T09:48:51;-4.40;99.90
16247;DHT22;8231;50.866;7.944;2022-12-13T09:51:31;-4.30;99.90
16247;DHT22;8231;50.866;7.944;2022-12-13T09:54:16;-4.30;99.90
16247;DHT22;8231;50.866;7.944;2022-12-13T09:56:46;-4.30;99.90
16247;DHT22;8231;50.866;7.944;2022-12-13T09:59:20;-4.30;99.90
16247;DHT22;8231;50.866;7.944;2022-12-13T10:01:50;-4.20;99.90
16247;DHT22;8231;50.866;7.944;2022-12-13T10:04:18;-4.20;99.90
16247;DHT22;8231;50.866;7.944;2022-12-13T10:06:50;-4.10;99.90
16247;DHT22;8231;50.866;7.944;2022-12-13T10:09:19;-4.20;99.90
16247;DHT22;8231;50.866;7.944;2022-12-13T10:11:49;-4.20;99.90
16247;DHT22;8231;50.866;7.944;2022-12-13T10:14:23;-4.20;99.90
16247;DHT22;8231;50.866;7.944;2022-12-13T10:16:53;-4.10;99.90
16247;DHT22;8231;50.866;7.944;2022-12-13T10:19:27;-4.10;99.90
16247;DHT22;8231;50.866;7.944;2022-12-13T10:21:59;-4.00;99.90
16247;DHT22;8231;50.866;7.944;2022-12-13T10:24:45;-4.00;99.90
16247;DHT22;8231;50.866;7.944;2022-12-13T10:27:16;-4.00;99.90
16247;DHT22;8231;50.866;7.944;2022-12-13T10:30:04;-3.90;99.90
16247;DHT22;8231;50.866;7.944;2022-12-13T10:32:40;-3.90;99.90
16247;DHT22;8231;50.866;7.944;2022-12-13T10:35:22;-3.90;99.90
16247;DHT22;8231;50.866;7.944;2022-12-13T10:37:52;-3.90;99.90
16247;DHT22;8231;50.866;7.944;2022-12-13T10:40:26;-3.90;99.90
16247;DHT22;8231;50.866;7.944;2022-12-13T10:43:12;-3.80;99.90
16247;DHT22;8231;50.866;7.944;2022-12-13T10:45:41;-3.80;99.90
16247;DHT22;8231;50.866;7.944;2022-12-13T10:48:22;-3.70;99.90
16247;DHT22;8231;50.866;7.944;2022-12-13T10:50:59;-3.60;99.90
16247;DHT22;8231;50.866;7.944;2022-12-13T10:53:32;-3.60;99.90
16247;DHT22;8231;50.866;7.944;2022-12-13T10:56:01;-3.50;99.90
16247;DHT22;8231;50.866;7.944;2022-12-13T10:58:37;-3.50;99.90
16247;DHT22;8231;50.866;7.944;2022-12-13T11:01:09;-3.30;99.90
16247;DHT22;8231;50.866;7.944;2022-12-13T11:03:38;-3.30;99.90
16247;DHT22;8231;50.866;7.944;2022-12-13T11:06:12;-3.20;99.90
16247;DHT22;8231;50.866;7.944;2022-12-13T11:08:43;-3.10;99.90
16247;DHT22;8231;50.866;7.944;2022-12-13T11:11:25;-3.00;99.90
16247;DHT22;8231;50.866;7.944;2022-12-13T11:13:55;-2.90;99.90
16247;DHT22;8231;50.866;7.944;2022-12-13T11:16:31;-2.90;99.90
16247;DHT22;8231;50.866;7.944;2022-12-13T11:19:03;-2.80;99.90
16247;DHT22;8231;50.866;7.944;2022-12-13T11:21:33;-2.70;99.90
16247;DHT22;8231;50.866;7.944;2022-12-13T11:24:07;-2.60;99.90
16247;DHT22;8231;50.866;7.944;2022-12-13T11:26:37;-2.50;99.90
16247;DHT22;8231;50.866;7.944;2022-12-13T11:29:25;-2.50;99.90
16247;DHT22;8231;50.866;7.944;2022-12-13T11:32:05;-2.40;99.90
16247;DHT22;8231;50.866;7.944;2022-12-13T11:34:41;-2.30;99.90
16247;DHT22;8231;50.866;7.944;2022-12-13T11:37:20;-2.30;99.90
16247;DHT22;8231;50.866;7.944;2022-12-13T11:39:54;-2.30;99.90
16247;DHT22;8231;50.866;7.944;2022-12-13T11:42:30;-2.20;99.90
16247;DHT22;8231;50.866;7.944;2022-12-13T11:45:06;-2.10;99.90
16247;DHT22;8231;50.866;7.944;2022-12-13T11:47:52;-2.10;99.90
16247;DHT22;8231;50.866;7.944;2022-12-13T11:50:28;-2.00;99.90
16247;DHT22;8231;50.866;7.944;2022-12-13T11:53:21;-2.00;99.90
16247;DHT22;8231;50.866;7.944;2022-12-13T11:55:59;-2.00;99.90
16247;DHT22;8231;50.866;7.944;2022-12-13T11:58:35;-1.70;99.90
16247;DHT22;8231;50.866;7.944;2022-12-13T12:01:26;-1.40;99.90
16247;DHT22;8231;50.866;7.944;2022-12-13T12:03:58;-1.00;99.90
16247;DHT22;8231;50.866;7.944;2022-12-13T12:06:36;-0.60;99.90
16247;DHT22;8231;50.866;7.944;2022-12-13T12:09:09;-0.40;99.90
16247;DHT22;8231;50.866;7.944;2022-12-13T12:11:44;-0.40;99.90
16247;DHT22;8231;50.866;7.944;2022-12-13T12:14:16;-0.30;99.90
16247;DHT22;8231;50.866;7.944;2022-12-13T12:16:50;-0.40;99.90
16247;DHT22;8231;50.866;7.944;2022-12-13T12:19:21;-0.40;99.90
16247;DHT22;8231;50.866;7.944;2022-12-13T12:22:03;-0.40;99.90
16247;DHT22;8231;50.866;7.944;2022-12-13T12:24:54;-0.30;99.90
16247;DHT22;8231;50.866;7.944;2022-12-13T12:27:33;-0.20;99.90
16247;DHT22;8231;50.866;7.944;2022-12-13T12:30:09;0.10;99.90
16247;DHT22;8231;50.866;7.944;2022-12-13T12:32:53;0.10;99.90
16247;DHT22;8231;50.866;7.944;2022-12-13T12:35:50;0.30;99.90
16247;DHT22;8231;50.866;7.944;2022-12-13T12:38:44;0.50;99.90
16247;DHT22;8231;50.866;7.944;2022-12-13T12:41:34;0.20;99.90
16247;DHT22;8231;50.866;7.944;2022-12-13T12:44:23;-0.20;99.90
16247;DHT22;8231;50.866;7.944;2022-12-13T12:47:04;-0.50;99.90
16247;DHT22;8231;50.866;7.944;2022-12-13T12:50:18;-0.60;99.90
16247;DHT22;8231;50.866;7.944;2022-12-13T12:53:13;-0.70;99.90
16247;DHT22;8231;50.866;7.944;2022-12-13T12:55:54;-0.80;99.90
16247;DHT22;8231;50.866;7.944;2022-12-13T12:58:27;-1.00;99.90
16247;DHT22;8231;50.866;7.944;2022-12-13T13:01:11;-1.00;99.90
16247;DHT22;8231;50.866;7.944;2022-12-13T13:03:42;-1.00;99.90
16247;DHT22;8231;50.866;7.944;2022-12-13T13:06:13;-1.10;99.90
16247;DHT22;8231;50.866;7.944;2022-12-13T13:08:45;-1.20;99.90
16247;DHT22;8231;50.866;7.944;2022-12-13T13:11:21;-1.20;99.90
16247;DHT22;8231;50.866;7.944;2022-12-13T13:14:04;-1.20;99.90
16247;DHT22;8231;50.866;7.944;2022-12-13T13:16:37;-1.20;99.90
16247;DHT22;8231;50.866;7.944;2022-12-13T13:19:43;-1.20;99.90
16247;DHT22;8231;50.866;7.944;2022-12-13T13:22:29;-1.20;99.90
16247;DHT22;8231;50.866;7.944;2022-12-13T13:25:21;-1.20;99.90
16247;DHT22;8231;50.866;7.944;2022-12-13T13:28:03;-1.20;99.90
16247;DHT22;8231;50.866;7.944;2022-12-13T13:30:32;-1.10;99.90
16247;DHT22;8231;50.866;7.944;2022-12-13T13:33:02;-1.00;99.90
16247;DHT22;8231;50.866;7.944;2022-12-13T13:35:48;-1.00;99.90
16247;DHT22;8231;50.866;7.944;2022-12-13T13:41:55;-0.80;99.90
16247;DHT22;8231;50.866;7.944;2022-12-13T13:47:39;-1.00;99.90
16247;DHT22;8231;50.866;7.944;2022-12-13T13:50:36;-0.90;99.90
16247;DHT22;8231;50.866;7.944;2022-12-13T13:53:48;-0.70;99.90
16247;DHT22;8231;50.866;7.944;2022-12-13T13:59:57;-0.50;99.90
16247;DHT22;8231;50.866;7.944;2022-12-13T14:02:57;-0.60;99.90
16247;DHT22;8231;50.866;7.944;2022-12-13T14:06:19;-0.70;99.90
16247;DHT22;8231;50.866;7.944;2022-12-13T14:12:22;-0.80;99.90
16247;DHT22;8231;50.866;7.944;2022-12-13T14:15:36;-0.80;99.90
16247;DHT22;8231;50.866;7.944;2022-12-13T14:21:46;-0.90;99.90
16247;DHT22;8231;50.866;7.944;2022-12-13T14:24:23;-1.10;99.90
16247;DHT22;8231;50.866;7.944;2022-12-13T14:27:14;-1.10;99.90
16247;DHT22;8231;50.866;7.944;2022-12-13T14:29:45;-1.10;99.90
16247;DHT22;8231;50.866;7.944;2022-12-13T14:32:26;-1.10;99.90
16247;DHT22;8231;50.866;7.944;2022-12-13T14:34:55;-1.10;99.90
16247;DHT22;8231;50.866;7.944;2022-12-13T14:37:27;-1.20;99.90
16247;DHT22;8231;50.866;7.944;2022-12-13T14:39:57;-1.20;99.90
16247;DHT22;8231;50.866;7.944;2022-12-13T14:42:27;-1.30;99.90
16247;DHT22;8231;50.866;7.944;2022-12-13T14:45:12;-1.40;99.90
16247;DHT22;8231;50.866;7.944;2022-12-13T14:47:41;-1.50;99.90
16247;DHT22;8231;50.866;7.944;2022-12-13T14:50:11;-1.50;99.90
16247;DHT22;8231;50.866;7.944;2022-12-13T14:52:45;-1.60;99.90
16247;DHT22;8231;50.866;7.944;2022-12-13T14:55:23;-1.60;99.90
16247;DHT22;8231;50.866;7.944;2022-12-13T14:57:53;-1.70;99.90
16247;DHT22;8231;50.866;7.944;2022-12-13T15:00:25;-1.80;99.90
16247;DHT22;8231;50.866;7.944;2022-12-13T15:02:56;-1.80;99.90
16247;DHT22;8231;50.866;7.944;2022-12-13T15:05:27;-1.90;99.90
16247;DHT22;8231;50.866;7.944;2022-12-13T15:07:57;-2.00;99.90
16247;DHT22;8231;50.866;7.944;2022-12-13T15:10:37;-2.00;99.90
16247;DHT22;8231;50.866;7.944;2022-12-13T15:13:07;-2.10;99.90
16247;DHT22;8231;50.866;7.944;2022-12-13T15:15:51;-2.20;99.90
16247;DHT22;8231;50.866;7.944;2022-12-13T15:18:24;-2.30;99.90
16247;DHT22;8231;50.866;7.944;2022-12-13T15:20:57;-2.40;99.90
16247;DHT22;8231;50.866;7.944;2022-12-13T15:23:31;-2.40;99.90
16247;DHT22;8231;50.866;7.944;2022-12-13T15:26:10;-2.40;99.90
16247;DHT22;8231;50.866;7.944;2022-12-13T15:28:55;-2.50;99.90
16247;DHT22;8231;50.866;7.944;2022-12-13T15:31:24;-2.50;99.90
16247;DHT22;8231;50.866;7.944;2022-12-13T15:33:52;-2.60;99.90
16247;DHT22;8231;50.866;7.944;2022-12-13T15:36:27;-2.50;99.90
16247;DHT22;8231;50.866;7.944;2022-12-13T15:39:00;-2.50;99.90
16247;DHT22;8231;50.866;7.944;2022-12-13T15:41:30;-2.50;99.90
16247;DHT22;8231;50.866;7.944;2022-12-13T15:44:02;-2.60;99.90
16247;DHT22;8231;50.866;7.944;2022-12-13T15:46:35;-2.40;99.90
16247;DHT22;8231;50.866;7.944;2022-12-13T15:49:05;-2.60;99.90
16247;DHT22;8231;50.866;7.944;2022-12-13T15:51:53;-2.60;99.90
16247;DHT22;8231;50.866;7.944;2022-12-13T15:54:23;-2.70;99.90
16247;DHT22;8231;50.866;7.944;2022-12-13T15:57:02;-2.70;99.90
16247;DHT22;8231;50.866;7.944;2022-12-13T15:59:38;-2.80;99.90
16247;DHT22;8231;50.866;7.944;2022-12-13T16:02:13;-2.80;99.90
16247;DHT22;8231;50.866;7.944;2022-12-13T16:04:42;-2.80;99.90
16247;DHT22;8231;50.866;7.944;2022-12-13T16:07:20;-2.90;99.90
16247;DHT22;8231;50.866;7.944;2022-12-13T16:09:52;-2.90;99.90
16247;DHT22;8231;50.866;7.944;2022-12-13T16:12:23;-2.90;99.90
16247;DHT22;8231;50.866;7.944;2022-12-13T16:15:08;-3.00;99.90
16247;DHT22;8231;50.866;7.944;2022-12-13T16:17:55;-2.90;99.90
16247;DHT22;8231;50.866;7.944;2022-12-13T16:20:31;-2.90;99.90
16247;DHT22;8231;50.866;7.944;2022-12-13T16:22:59;-3.00;99.90
16247;DHT22;8231;50.866;7.944;2022-12-13T16:25:36;-3.00;99.90
16247;DHT22;8231;50.866;7.944;2022-12-13T16:28:04;-3.00;99.90
16247;DHT22;8231;50.866;7.944;2022-12-13T16:30:59;-3.00;99.90
16247;DHT22;8231;50.866;7.944;2022-12-13T16:33:28;-3.00;99.90
16247;DHT22;8231;50.866;7.944;2022-12-13T16:35:57;-3.00;99.90
16247;DHT22;8231;50.866;7.944;2022-12-13T16:38:25;-3.10;99.90
16247;DHT22;8231;50.866;7.944;2022-12-13T16:40:59;-3.10;99.90
16247;DHT22;8231;50.866;7.944;2022-12-13T16:43:38;-3.10;99.90
16247;DHT22;8231;50.866;7.944;2022-12-13T16:46:10;-3.10;99.90
16247;DHT22;8231;50.866;7.944;2022-12-13T16:49:00;-3.00;99.90
16247;DHT22;8231;50.866;7.944;2022-12-13T16:51:31;-3.00;99.90
16247;DHT22;8231;50.866;7.944;2022-12-13T16:53:59;-3.10;99.90